createdAt,value
2023-04-08T00:02:02.025Z,98972.19
2023-04-08T00:04:28.321Z,98978.34
2023-04-08T00:06:54.479Z,98974.88
2023-04-08T00:09:20.607Z,98975.69
2023-04-08T00:11:46.775Z,98974.66
2023-04-08T00:14:12.905Z,98975.50
2023-04-08T00:16:39.115Z,98984.34
2023-04-08T00:19:05.233Z,98981.84
2023-04-08T00:21:31.362Z,98984.53
2023-04-08T00:23:57.481Z,98978.19
2023-04-08T00:26:23.568Z,98983.53
2023-04-08T00:28:49.729Z,98988.88
2023-04-08T00:31:16.072Z,98991.53
2023-04-08T00:33:42.196Z,98991.53
2023-04-08T00:36:08.301Z,98987.84
2023-04-08T00:38:34.424Z,98994.81
2023-04-08T00:41:00.514Z,98988.66
2023-04-08T00:43:26.627Z,98995.03
2023-04-08T00:45:52.775Z,98995.84
2023-04-08T00:48:18.884Z,98992.34
2023-04-08T00:50:44.971Z,98994.00
2023-04-08T00:53:11.561Z,98994.00
2023-04-08T00:55:37.644Z,98994.00
2023-04-08T00:58:03.745Z,98993.19
2023-04-08T01:00:29.874Z,98990.50
2023-04-08T01:02:56.115Z,98998.34
2023-04-08T01:05:22.281Z,99000.16
2023-04-08T01:07:48.393Z,98997.50
2023-04-08T01:10:14.494Z,99005.50
2023-04-08T01:12:40.615Z,99000.16
2023-04-08T01:15:06.743Z,98994.81
2023-04-08T01:17:32.913Z,98997.50
2023-04-08T01:19:59.052Z,98993.81
2023-04-08T01:22:25.157Z,99001.00
2023-04-08T01:24:51.242Z,98994.81
2023-04-08T01:27:17.325Z,98993.81
2023-04-08T01:29:43.437Z,98998.34
2023-04-08T01:32:09.533Z,98998.13
2023-04-08T01:34:35.626Z,98998.13
2023-04-08T01:37:01.740Z,98998.13
2023-04-08T01:39:27.828Z,98994.63
2023-04-08T01:41:53.909Z,99002.66
2023-04-08T01:44:20.028Z,98995.47
2023-04-08T01:46:46.230Z,99000.81
2023-04-08T01:49:12.380Z,98998.13
2023-04-08T01:51:39.024Z,98995.47
2023-04-08T01:54:05.111Z,99001.66
2023-04-08T01:56:31.214Z,98999.81
2023-04-08T01:58:57.330Z,98997.97
2023-04-08T02:01:23.449Z,99003.47
2023-04-08T02:03:49.657Z,98997.31
2023-04-08T02:06:15.825Z,99003.31
2023-04-08T02:08:41.919Z,99005.16
2023-04-08T02:11:08.031Z,99001.66
2023-04-08T02:13:34.161Z,99002.47
2023-04-08T02:16:00.282Z,99001.66
2023-04-08T02:18:26.373Z,99005.97
2023-04-08T02:20:52.511Z,99009.66
2023-04-08T02:23:18.599Z,99010.50
2023-04-08T02:25:44.701Z,99017.69
2023-04-08T02:28:10.820Z,99017.69
2023-04-08T02:30:36.931Z,99016.84
2023-04-08T02:33:03.073Z,99016.00
2023-04-08T02:35:29.275Z,99011.31
2023-04-08T02:37:55.382Z,99022.00
2023-04-08T02:40:21.480Z,99012.34
2023-04-08T02:42:47.570Z,99012.34
2023-04-08T02:45:13.660Z,99013.16
2023-04-08T02:47:39.765Z,99011.31
2023-04-08T02:50:05.896Z,99014.00
2023-04-08T02:52:31.994Z,99016.66
2023-04-08T02:54:58.114Z,99015.84
2023-04-08T02:57:24.713Z,99017.47
2023-04-08T02:59:50.825Z,99012.34
2023-04-08T03:02:17.004Z,99016.66
2023-04-08T03:04:43.244Z,99005.97
2023-04-08T03:07:09.354Z,99008.47
2023-04-08T03:09:35.446Z,99020.16
2023-04-08T03:12:01.564Z,99020.16
2023-04-08T03:14:27.708Z,99015.00
2023-04-08T03:16:53.923Z,99015.84
2023-04-08T03:19:20.107Z,99021.19
2023-04-08T03:21:46.204Z,99022.81
2023-04-08T03:24:12.330Z,99020.34
2023-04-08T03:26:38.454Z,99024.69
2023-04-08T03:29:04.550Z,99020.16
2023-04-08T03:31:30.739Z,99029.19
2023-04-08T03:33:56.863Z,99033.50
2023-04-08T03:36:22.972Z,99021.19
2023-04-08T03:38:49.385Z,99027.34
2023-04-08T03:41:15.736Z,99030.00
2023-04-08T03:43:41.835Z,99030.84
2023-04-08T03:46:08.000Z,99035.34
2023-04-08T03:48:34.197Z,99032.69
2023-04-08T03:51:00.294Z,99026.31
2023-04-08T03:53:26.385Z,99036.19
2023-04-08T03:55:52.504Z,99028.16
2023-04-08T03:58:18.592Z,99025.50
2023-04-08T04:00:44.699Z,99027.34
2023-04-08T04:03:11.044Z,99026.53
2023-04-08T04:05:37.259Z,99023.84
2023-04-08T04:08:03.408Z,99034.31
2023-04-08T04:10:29.526Z,99029.19
2023-04-08T04:12:55.620Z,99021.19
2023-04-08T04:15:21.721Z,99022.81
2023-04-08T04:17:47.933Z,99031.66
2023-04-08T04:20:14.097Z,99026.53
2023-04-08T04:22:40.226Z,99031.66
2023-04-08T04:25:06.357Z,99031.88
2023-04-08T04:27:32.484Z,99032.69
2023-04-08T04:29:58.587Z,99027.34
2023-04-08T04:32:24.743Z,99026.53
2023-04-08T04:34:50.877Z,99037.00
2023-04-08T04:37:16.978Z,99035.34
2023-04-08T04:39:43.097Z,99044.19
2023-04-08T04:42:09.188Z,99044.19
2023-04-08T04:44:35.298Z,99043.38
2023-04-08T04:47:01.422Z,99046.03
2023-04-08T04:49:27.526Z,99041.53
2023-04-08T04:51:53.618Z,99049.53
2023-04-08T04:54:19.742Z,99046.88
2023-04-08T04:56:45.837Z,99050.34
2023-04-08T04:59:11.928Z,99046.88
2023-04-08T05:01:38.153Z,99044.19
2023-04-08T05:04:04.380Z,99048.72
2023-04-08T05:06:30.498Z,99045.03
2023-04-08T05:08:56.612Z,99054.06
2023-04-08T05:11:22.722Z,99050.34
2023-04-08T05:13:48.831Z,99050.56
2023-04-08T05:16:15.060Z,99054.88
2023-04-08T05:18:41.208Z,99054.06
2023-04-08T05:21:07.321Z,99059.41
2023-04-08T05:23:33.434Z,99057.75
2023-04-08T05:25:59.583Z,99066.59
2023-04-08T05:28:25.698Z,99075.44
2023-04-08T05:30:51.831Z,99066.59
2023-04-08T05:33:17.947Z,99071.13
2023-04-08T05:35:44.117Z,99068.25
2023-04-08T05:38:10.246Z,99066.41
2023-04-08T05:40:36.379Z,99062.91
2023-04-08T05:43:02.479Z,99065.56
2023-04-08T05:45:28.597Z,99071.72
2023-04-08T05:47:54.776Z,99072.75
2023-04-08T05:50:20.929Z,99077.09
2023-04-08T05:52:47.047Z,99081.59
2023-04-08T05:55:13.157Z,99078.09
2023-04-08T05:57:39.269Z,99085.09
2023-04-08T06:00:05.482Z,99092.28
2023-04-08T06:02:31.758Z,99083.44
2023-04-08T06:04:58.022Z,99094.13
2023-04-08T06:07:24.369Z,99098.44
2023-04-08T06:09:50.523Z,99102.97
2023-04-08T06:12:16.621Z,99098.44
2023-04-08T06:14:42.762Z,99089.81
2023-04-08T06:17:08.869Z,99100.31
2023-04-08T06:19:34.957Z,99101.34
2023-04-08T06:22:01.083Z,99106.69
2023-04-08T06:24:27.194Z,99117.38
2023-04-08T06:26:53.280Z,99120.84
2023-04-08T06:29:19.408Z,99123.53
2023-04-08T06:31:45.576Z,99128.88
2023-04-08T06:34:11.698Z,99130.50
2023-04-08T06:36:37.807Z,99136.06
2023-04-08T06:39:03.894Z,99132.56
2023-04-08T06:41:29.992Z,99134.22
2023-04-08T06:43:56.116Z,99133.41
2023-04-08T06:46:22.355Z,99129.03
2023-04-08T06:48:48.757Z,99135.41
2023-04-08T06:51:15.007Z,99137.91
2023-04-08T06:53:41.138Z,99140.59
2023-04-08T06:56:07.242Z,99142.41
2023-04-08T06:58:33.376Z,99156.78
2023-04-08T07:00:59.486Z,99147.75
2023-04-08T07:03:25.753Z,99155.75
2023-04-08T07:05:52.476Z,99154.78
2023-04-08T07:08:18.611Z,99153.94
2023-04-08T07:10:44.708Z,99153.09
2023-04-08T07:13:10.888Z,99156.78
2023-04-08T07:15:36.979Z,99162.97
2023-04-08T07:18:03.142Z,99162.97
2023-04-08T07:20:30.965Z,99162.13
2023-04-08T07:22:58.268Z,99163.78
2023-04-08T07:25:24.404Z,99167.47
2023-04-08T07:27:50.521Z,99161.31
2023-04-08T07:30:16.622Z,99164.81
2023-04-08T07:32:42.819Z,99166.81
2023-04-08T07:35:08.938Z,99165.81
2023-04-08T07:37:35.028Z,99173.81
2023-04-08T07:40:01.153Z,99180.00
2023-04-08T07:42:27.281Z,99183.50
2023-04-08T07:44:53.393Z,99184.50
2023-04-08T07:47:19.498Z,99189.84
2023-04-08T07:49:45.618Z,99192.53
2023-04-08T07:52:11.731Z,99192.53
2023-04-08T07:54:37.832Z,99193.38
2023-04-08T07:57:03.959Z,99203.22
2023-04-08T07:59:30.141Z,99197.03
2023-04-08T08:01:56.303Z,99205.06
2023-04-08T08:04:22.630Z,99205.06
2023-04-08T08:06:48.953Z,99214.75
2023-04-08T08:09:15.060Z,99215.75
2023-04-08T08:11:41.197Z,99211.22
2023-04-08T08:14:07.328Z,99216.56
2023-04-08T08:16:33.600Z,99217.41
2023-04-08T08:18:59.829Z,99224.59
2023-04-08T08:21:25.932Z,99228.09
2023-04-08T08:23:52.144Z,99226.25
2023-04-08T08:26:18.368Z,99232.59
2023-04-08T08:28:44.696Z,99227.25
2023-04-08T08:31:10.832Z,99226.44
2023-04-08T08:33:36.963Z,99229.91
2023-04-08T08:36:03.126Z,99237.94
2023-04-08T08:38:29.268Z,99239.78
2023-04-08T08:40:55.381Z,99243.28
2023-04-08T08:43:21.493Z,99248.63
2023-04-08T08:45:47.595Z,99247.63
2023-04-08T08:48:13.706Z,99255.81
2023-04-08T08:50:39.817Z,99247.63
2023-04-08T08:53:05.917Z,99246.81
2023-04-08T08:55:56.774Z,99246.81
2023-04-08T08:58:18.101Z,99243.28
2023-04-08T09:00:44.210Z,99242.47
2023-04-08T09:03:10.497Z,99246.97
2023-04-08T09:05:36.862Z,99255.81
2023-04-08T09:08:03.148Z,99242.47
2023-04-08T09:10:29.237Z,99253.97
2023-04-08T09:12:55.374Z,99249.66
2023-04-08T09:15:21.490Z,99247.81
2023-04-08T09:17:47.646Z,99245.13
2023-04-08T09:20:13.995Z,99244.31
2023-04-08T09:22:40.286Z,99257.66
2023-04-08T09:25:06.390Z,99258.50
2023-04-08T09:27:32.495Z,99263.00
2023-04-08T09:29:58.634Z,99252.31
2023-04-08T09:32:24.750Z,99261.16
2023-04-08T09:34:50.867Z,99261.16
2023-04-08T09:37:16.961Z,99261.16
2023-04-08T09:39:43.073Z,99263.84
2023-04-08T09:42:09.175Z,99271.03
2023-04-08T09:44:35.335Z,99272.06
2023-04-08T09:47:01.439Z,99277.19
2023-04-08T09:49:27.535Z,99276.38
2023-04-08T09:51:53.657Z,99278.22
2023-04-08T09:54:19.787Z,99282.53
2023-04-08T09:56:45.896Z,99282.72
2023-04-08T09:59:12.018Z,99276.38
2023-04-08T10:01:38.225Z,99290.75
2023-04-08T10:04:04.577Z,99287.06
2023-04-08T10:06:30.801Z,99281.88
2023-04-08T10:08:56.894Z,99286.22
2023-04-08T10:11:22.999Z,99287.06
2023-04-08T10:13:49.553Z,99281.72
2023-04-08T10:16:15.852Z,99286.22
2023-04-08T10:18:41.971Z,99291.56
2023-04-08T10:21:08.105Z,99292.41
2023-04-08T10:23:34.238Z,99289.72
2023-04-08T10:26:00.327Z,99284.38
2023-04-08T10:28:26.711Z,99280.06
2023-04-08T10:30:52.936Z,99290.56
2023-04-08T10:33:19.100Z,99286.22
2023-04-08T10:35:45.267Z,99293.22
2023-04-08T10:38:11.364Z,99287.88
2023-04-08T10:40:37.463Z,99280.88
2023-04-08T10:43:03.594Z,99281.72
2023-04-08T10:45:29.818Z,99287.06
2023-04-08T10:47:55.952Z,99280.88
2023-04-08T10:50:22.069Z,99272.06
2023-04-08T10:52:48.156Z,99278.22
2023-04-08T10:55:14.269Z,99269.38
2023-04-08T10:57:40.405Z,99272.06
2023-04-08T11:00:06.497Z,99270.19
2023-04-08T11:02:32.686Z,99274.72
2023-04-08T11:04:58.945Z,99280.88
2023-04-08T11:07:25.040Z,99286.22
2023-04-08T11:09:51.148Z,99287.06
2023-04-08T11:12:17.258Z,99282.53
2023-04-08T11:14:43.383Z,99280.06
2023-04-08T11:17:09.477Z,99279.03
2023-04-08T11:19:35.608Z,99281.72
2023-04-08T11:22:01.720Z,99275.34
2023-04-08T11:24:27.806Z,99279.88
2023-04-08T11:26:53.923Z,99281.72
2023-04-08T11:29:20.051Z,99274.53
2023-04-08T11:31:46.149Z,99276.38
2023-04-08T11:34:12.327Z,99279.03
2023-04-08T11:36:38.419Z,99276.38
2023-04-08T11:39:04.516Z,99278.00
2023-04-08T11:41:30.624Z,99279.03
2023-04-08T11:43:56.726Z,99266.72
2023-04-08T11:46:22.893Z,99277.19
2023-04-08T11:48:49.125Z,99272.88
2023-04-08T11:51:15.209Z,99278.22
2023-04-08T11:53:41.295Z,99282.53
2023-04-08T11:56:07.593Z,99278.22
2023-04-08T11:58:36.351Z,99269.19
2023-04-08T12:01:02.631Z,99265.69
2023-04-08T12:03:29.136Z,99274.53
2023-04-08T12:05:55.405Z,99282.53
2023-04-08T12:08:21.507Z,99287.06
2023-04-08T12:10:47.628Z,99287.88
2023-04-08T12:13:13.726Z,99284.38
2023-04-08T12:15:39.824Z,99285.22
2023-04-08T12:18:06.056Z,99282.53
2023-04-08T12:20:32.234Z,99287.88
2023-04-08T12:22:58.334Z,99286.03
2023-04-08T12:25:24.467Z,99287.06
2023-04-08T12:27:50.558Z,99295.06
2023-04-08T12:30:16.859Z,99295.06
2023-04-08T12:32:43.019Z,99295.91
2023-04-08T12:35:09.125Z,99286.22
2023-04-08T12:37:35.238Z,99295.06
2023-04-08T12:40:01.368Z,99290.56
2023-04-08T12:42:27.483Z,99293.22
2023-04-08T12:44:53.576Z,99296.72
2023-04-08T12:47:19.778Z,99292.41
2023-04-08T12:49:49.663Z,99289.56
2023-04-08T12:52:16.182Z,99286.03
2023-04-08T12:54:42.305Z,99285.22
2023-04-08T12:57:08.398Z,99286.03
2023-04-08T12:59:34.487Z,99290.38
2023-04-08T13:02:00.628Z,99288.69
2023-04-08T13:04:26.738Z,99286.03
2023-04-08T13:06:52.832Z,99283.34
2023-04-08T13:09:18.949Z,99284.22
2023-04-08T13:11:45.049Z,99285.03
2023-04-08T13:14:11.161Z,99293.88
2023-04-08T13:16:37.395Z,99281.53
2023-04-08T13:19:03.525Z,99293.88
2023-04-08T13:21:29.624Z,99288.69
2023-04-08T13:23:55.817Z,99286.88
2023-04-08T13:26:21.908Z,99286.88
2023-04-08T13:28:56.570Z,99288.69
2023-04-08T13:31:24.136Z,99292.41
2023-04-08T13:33:50.649Z,99288.69
2023-04-08T13:36:16.816Z,99282.53
2023-04-08T13:38:43.039Z,99293.06
2023-04-08T13:41:09.129Z,99292.22
2023-04-08T13:43:35.220Z,99286.88
2023-04-08T13:46:01.364Z,99296.53
2023-04-08T13:48:27.532Z,99297.38
2023-04-08T13:50:53.623Z,99293.88
2023-04-08T13:53:19.743Z,99290.38
2023-04-08T13:55:45.840Z,99293.06
2023-04-08T13:58:22.960Z,99291.19
2023-04-08T14:00:50.155Z,99299.22
2023-04-08T14:03:16.403Z,99301.88
2023-04-08T14:05:42.522Z,99301.06
2023-04-08T14:08:08.646Z,99298.41
2023-04-08T14:10:34.730Z,99304.56
2023-04-08T14:13:00.836Z,99298.41
2023-04-08T14:15:26.955Z,99297.38
2023-04-08T14:17:53.085Z,99301.88
2023-04-08T14:20:19.271Z,99289.34
2023-04-08T14:22:45.378Z,99296.38
2023-04-08T14:25:11.499Z,99286.69
2023-04-08T14:27:47.535Z,99284.88
2023-04-08T14:30:21.083Z,99286.69
2023-04-08T14:32:47.259Z,99281.34
2023-04-08T14:35:13.363Z,99281.34
2023-04-08T14:37:39.490Z,99292.03
2023-04-08T14:40:05.599Z,99286.69
2023-04-08T14:42:31.699Z,99289.34
2023-04-08T14:44:57.894Z,99293.72
2023-04-08T14:47:24.011Z,99294.69
2023-04-08T14:49:50.145Z,99292.03
2023-04-08T14:52:16.292Z,99301.06
2023-04-08T14:54:42.382Z,99294.69
2023-04-08T14:57:08.487Z,99293.72
2023-04-08T14:59:34.613Z,99283.03
2023-04-08T15:02:00.774Z,99279.53
2023-04-08T15:04:26.991Z,99283.03
2023-04-08T15:06:53.155Z,99280.50
2023-04-08T15:09:19.256Z,99281.34
2023-04-08T15:11:45.386Z,99280.34
2023-04-08T15:14:11.589Z,99283.84
2023-04-08T15:16:37.682Z,99285.69
2023-04-08T15:19:03.824Z,99274.19
2023-04-08T15:21:29.964Z,99275.81
2023-04-08T15:23:56.063Z,99287.34
2023-04-08T15:26:22.163Z,99292.69
2023-04-08T15:28:48.676Z,99285.50
2023-04-08T15:31:14.939Z,99285.50
2023-04-08T15:33:41.027Z,99291.84
2023-04-08T15:36:07.199Z,99290.84
2023-04-08T15:38:33.366Z,99288.16
2023-04-08T15:40:59.470Z,99288.00
2023-04-08T15:43:25.602Z,99288.16
2023-04-08T15:45:51.704Z,99291.69
2023-04-08T15:48:17.811Z,99290.84
2023-04-08T15:50:43.992Z,99298.84
2023-04-08T15:53:10.161Z,99291.69
2023-04-08T15:55:36.237Z,99290.84
2023-04-08T15:58:02.363Z,99292.50
2023-04-08T16:00:28.499Z,99296.00
2023-04-08T16:02:54.861Z,99285.31
2023-04-08T16:05:21.151Z,99286.34
2023-04-08T16:07:47.237Z,99289.66
2023-04-08T16:10:13.361Z,99287.00
2023-04-08T16:12:39.896Z,99287.00
2023-04-08T16:15:06.031Z,99288.00
2023-04-08T16:17:32.239Z,99285.19
2023-04-08T16:19:58.376Z,99297.50
2023-04-08T16:22:24.516Z,99294.84
2023-04-08T16:24:50.756Z,99295.66
2023-04-08T16:27:16.934Z,99297.50
2023-04-08T16:29:43.031Z,99293.00
2023-04-08T16:32:09.115Z,99304.53
2023-04-08T16:34:37.511Z,99298.34
2023-04-08T16:37:03.696Z,99307.22
2023-04-08T16:39:29.821Z,99300.00
2023-04-08T16:41:55.961Z,99300.00
2023-04-08T16:44:25.788Z,99309.69
2023-04-08T16:46:51.896Z,99310.50
2023-04-08T16:49:18.575Z,99311.34
2023-04-08T16:51:44.739Z,99310.31
2023-04-08T16:54:10.889Z,99310.50
2023-04-08T16:56:37.017Z,99302.47
2023-04-08T16:59:03.098Z,99313.19
2023-04-08T17:01:29.255Z,99307.66
2023-04-08T17:03:55.726Z,99310.31
2023-04-08T17:06:22.380Z,99306.63
2023-04-08T17:08:48.569Z,99309.31
2023-04-08T17:11:14.910Z,99310.97
2023-04-08T17:13:41.251Z,99314.66
2023-04-08T17:16:07.370Z,99319.00
2023-04-08T17:18:33.541Z,99317.97
2023-04-08T17:20:59.653Z,99317.16
2023-04-08T17:23:25.750Z,99320.66
2023-04-08T17:25:51.864Z,99309.97
2023-04-08T17:28:17.959Z,99309.78
2023-04-08T17:30:44.067Z,99316.97
2023-04-08T17:33:10.704Z,99310.59
2023-04-08T17:35:36.793Z,99312.47
2023-04-08T17:38:02.936Z,99316.13
2023-04-08T17:40:29.078Z,99314.09
2023-04-08T17:42:55.187Z,99308.59
2023-04-08T17:45:21.288Z,99309.63
2023-04-08T17:47:47.408Z,99311.25
2023-04-08T17:50:13.564Z,99312.09
2023-04-08T17:52:39.671Z,99308.59
2023-04-08T17:55:05.913Z,99316.59
2023-04-08T17:57:32.001Z,99316.59
2023-04-08T17:59:58.094Z,99318.25
2023-04-08T18:02:24.768Z,99326.28
2023-04-08T18:04:50.954Z,99322.78
2023-04-08T18:07:17.048Z,99322.59
2023-04-08T18:09:43.157Z,99321.78
2023-04-08T18:12:09.241Z,99336.78
2023-04-08T18:14:35.347Z,99330.63
2023-04-08T18:17:01.499Z,99331.28
2023-04-08T18:19:27.623Z,99335.97
2023-04-08T18:21:53.762Z,99334.94
2023-04-08T18:24:19.861Z,99336.78
2023-04-08T18:26:49.095Z,99344.00
2023-04-08T18:29:20.500Z,99342.97
2023-04-08T18:31:46.591Z,99342.97
2023-04-08T18:34:12.683Z,99343.78
2023-04-08T18:36:39.209Z,99344.63
2023-04-08T18:39:05.302Z,99350.00
2023-04-08T18:41:31.385Z,99351.63
2023-04-08T18:43:57.532Z,99356.97
2023-04-08T18:46:23.660Z,99358.81
2023-04-08T18:48:49.839Z,99352.47
2023-04-08T18:51:15.972Z,99358.81
2023-04-08T18:53:42.099Z,99364.00
2023-04-08T18:56:08.191Z,99358.66
2023-04-08T18:58:34.312Z,99364.81
2023-04-08T19:01:00.410Z,99364.81
2023-04-08T19:03:26.553Z,99364.00
2023-04-08T19:05:52.742Z,99368.31
2023-04-08T19:08:18.842Z,99365.66
2023-04-08T19:10:44.934Z,99368.16
2023-04-08T19:13:11.047Z,99365.66
2023-04-08T19:15:37.214Z,99368.16
2023-04-08T19:18:03.359Z,99370.81
2023-04-08T19:20:29.508Z,99366.31
2023-04-08T19:22:55.622Z,99365.28
2023-04-08T19:25:21.715Z,99365.47
2023-04-08T19:27:47.822Z,99364.28
2023-04-08T19:30:13.928Z,99371.44
2023-04-08T19:32:40.027Z,99371.44
2023-04-08T19:35:06.171Z,99372.31
2023-04-08T19:37:32.262Z,99370.44
2023-04-08T19:39:58.352Z,99367.78
2023-04-08T19:42:24.471Z,99366.97
2023-04-08T19:44:50.601Z,99367.59
2023-04-08T19:47:16.884Z,99375.63
2023-04-08T19:49:42.990Z,99375.63
2023-04-08T19:52:09.082Z,99372.09
2023-04-08T19:54:35.168Z,99372.75
2023-04-08T19:57:01.278Z,99372.75
2023-04-08T19:59:27.388Z,99375.25
2023-04-08T20:01:53.561Z,99369.91
2023-04-08T20:04:20.008Z,99379.56
2023-04-08T20:06:46.166Z,99383.06
2023-04-08T20:09:12.274Z,99386.59
2023-04-08T20:11:38.388Z,99382.09
2023-04-08T20:14:04.482Z,99389.28
2023-04-08T20:16:30.605Z,99385.75
2023-04-08T20:18:56.759Z,99385.75
2023-04-08T20:21:22.851Z,99387.44
2023-04-08T20:23:48.987Z,99384.75
2023-04-08T20:26:15.151Z,99390.94
2023-04-08T20:28:41.228Z,99397.91
2023-04-08T20:31:07.324Z,99387.22
2023-04-08T20:33:33.459Z,99394.41
2023-04-08T20:35:59.571Z,99388.09
2023-04-08T20:38:25.695Z,99401.44
2023-04-08T20:40:52.090Z,99398.78
2023-04-08T20:43:18.198Z,99391.59
2023-04-08T20:45:44.293Z,99399.44
2023-04-08T20:48:10.433Z,99402.09
2023-04-08T20:50:36.530Z,99398.56
2023-04-08T20:53:02.617Z,99395.91
2023-04-08T20:55:28.721Z,99397.56
2023-04-08T20:57:54.814Z,99395.72
2023-04-08T21:00:20.897Z,99393.88
2023-04-08T21:02:47.163Z,99392.22
2023-04-08T21:05:13.385Z,99392.22
2023-04-08T21:07:39.485Z,99396.56
2023-04-08T21:10:05.636Z,99393.88
2023-04-08T21:12:31.936Z,99391.84
2023-04-08T21:14:58.029Z,99389.34
2023-04-08T21:17:24.169Z,99391.84
2023-04-08T21:19:50.266Z,99399.88
2023-04-08T21:22:16.360Z,99384.88
2023-04-08T21:24:42.475Z,99381.16
2023-04-08T21:27:08.567Z,99377.84
2023-04-08T21:29:34.670Z,99381.16
2023-04-08T21:32:00.886Z,99385.47
2023-04-08T21:34:27.046Z,99384.66
2023-04-08T21:36:53.146Z,99383.84
2023-04-08T21:39:19.251Z,99382.81
2023-04-08T21:41:45.374Z,99376.63
2023-04-08T21:44:11.493Z,99377.47
2023-04-08T21:46:38.251Z,99382.81
2023-04-08T21:49:04.362Z,99381.00
2023-04-08T21:51:30.481Z,99388.16
2023-04-08T21:53:56.610Z,99386.34
2023-04-08T21:56:22.734Z,99385.47
2023-04-08T21:58:49.078Z,99384.50
2023-04-08T22:01:15.356Z,99385.31
2023-04-08T22:03:41.538Z,99381.81
2023-04-08T22:06:07.662Z,99380.78
2023-04-08T22:08:33.945Z,99376.28
2023-04-08T22:11:00.064Z,99379.78
2023-04-08T22:13:26.157Z,99384.50
2023-04-08T22:15:52.282Z,99384.50
2023-04-08T22:18:18.369Z,99391.47
2023-04-08T22:20:44.463Z,99382.63
2023-04-08T22:23:10.563Z,99391.31
2023-04-08T22:25:36.658Z,99379.16
2023-04-08T22:28:02.782Z,99378.97
2023-04-08T22:30:28.898Z,99382.47
2023-04-08T22:32:55.053Z,99373.63
2023-04-08T22:35:21.160Z,99372.78
2023-04-08T22:37:47.257Z,99376.28
2023-04-08T22:40:13.355Z,99381.66
2023-04-08T22:42:39.451Z,99371.94
2023-04-08T22:45:05.570Z,99377.13
2023-04-08T22:47:31.694Z,99385.13
2023-04-08T22:49:57.803Z,99380.63
2023-04-08T22:52:23.915Z,99381.66
2023-04-08T22:54:50.015Z,99377.13
2023-04-08T22:57:16.114Z,99385.13
2023-04-08T22:59:42.204Z,99375.28
2023-04-08T23:02:08.399Z,99379.78
2023-04-08T23:04:36.052Z,99382.25
2023-04-08T23:07:02.156Z,99380.63
2023-04-08T23:09:28.255Z,99381.44
2023-04-08T23:11:54.346Z,99376.09
2023-04-08T23:14:20.930Z,99378.78
2023-04-08T23:16:47.006Z,99382.25
2023-04-08T23:19:13.112Z,99373.41
2023-04-08T23:21:39.248Z,99370.75
2023-04-08T23:24:05.345Z,99375.09
2023-04-08T23:26:31.451Z,99368.06
2023-04-08T23:28:57.565Z,99376.09
2023-04-08T23:31:23.692Z,99363.53
2023-04-08T23:33:49.844Z,99371.41
2023-04-08T23:36:16.029Z,99369.75
2023-04-08T23:38:42.152Z,99370.75
2023-04-08T23:41:08.254Z,99369.75
2023-04-08T23:43:34.380Z,99369.75
2023-04-08T23:46:00.482Z,99369.75
2023-04-08T23:48:26.582Z,99367.06
2023-04-08T23:50:52.697Z,99365.41
2023-04-08T23:53:18.833Z,99364.41
2023-04-08T23:55:44.913Z,99360.06
2023-04-08T23:58:11.043Z,99360.06
